Wynoose, Illinois
Current Conditions -  °F | °C
As of 9:55 PM on Sunday 23 Nov 2014 (Local Time) from KOLY Reporting Station
Overcast Overcast  
Wind Chill: 54°   Ceiling: 400
Heat Index: 54°   Visibility: 10mi
Dew Point: 54°   Wind: 5mph
Humidity: 100%   Direction: 220°SW
Pressure: 29.26"   Gusts: NA
Location:  38.7177°N, 88.2112°W
Report Text: KOLY 240355Z AUTO 22004KT 10SM OVC004 12/12 A2926 RMK AO2
Loading
Personal Weather Stations






























Interactive Weather Map New forecast layout! Learn more

10-Day Weather Forecast

Advertisements
Track Severe Weather on mobile